sensor_id;sensor_type;location;lat;lon;timestamp;P1;durP1;ratioP1;P2;durP2;ratioP2
48002;SDS011;33768;48.578;11.574;2023-01-19T00:00:39;15.73;;;10.60;;
48002;SDS011;33768;48.578;11.574;2023-01-19T00:03:43;22.67;;;11.00;;
48002;SDS011;33768;48.578;11.574;2023-01-19T00:06:48;14.87;;;10.73;;
48002;SDS011;33768;48.578;11.574;2023-01-19T00:09:52;16.17;;;10.60;;
48002;SDS011;33768;48.578;11.574;2023-01-19T00:12:56;20.63;;;10.90;;
48002;SDS011;33768;48.578;11.574;2023-01-19T00:16:01;15.37;;;10.00;;
48002;SDS011;33768;48.578;11.574;2023-01-19T00:19:05;16.90;;;11.43;;
48002;SDS011;33768;48.578;11.574;2023-01-19T00:22:09;15.17;;;11.37;;
48002;SDS011;33768;48.578;11.574;2023-01-19T00:25:13;16.60;;;10.17;;
48002;SDS011;33768;48.578;11.574;2023-01-19T00:28:18;16.67;;;11.30;;
48002;SDS011;33768;48.578;11.574;2023-01-19T00:31:22;16.93;;;10.53;;
48002;SDS011;33768;48.578;11.574;2023-01-19T00:34:27;19.47;;;9.97;;
48002;SDS011;33768;48.578;11.574;2023-01-19T00:37:39;15.83;;;9.47;;
48002;SDS011;33768;48.578;11.574;2023-01-19T00:40:44;14.43;;;10.03;;
48002;SDS011;33768;48.578;11.574;2023-01-19T00:43:48;21.97;;;11.13;;
48002;SDS011;33768;48.578;11.574;2023-01-19T00:46:52;16.87;;;10.23;;
48002;SDS011;33768;48.578;11.574;2023-01-19T00:49:56;14.50;;;9.90;;
48002;SDS011;33768;48.578;11.574;2023-01-19T00:53:01;19.50;;;10.30;;
48002;SDS011;33768;48.578;11.574;2023-01-19T00:56:06;14.30;;;9.87;;
48002;SDS011;33768;48.578;11.574;2023-01-19T00:59:10;12.37;;;8.80;;
48002;SDS011;33768;48.578;11.574;2023-01-19T01:02:14;12.77;;;8.90;;
48002;SDS011;33768;48.578;11.574;2023-01-19T01:05:19;18.63;;;8.70;;
48002;SDS011;33768;48.578;11.574;2023-01-19T01:08:24;11.23;;;8.17;;
48002;SDS011;33768;48.578;11.574;2023-01-19T01:11:28;11.87;;;7.70;;
48002;SDS011;33768;48.578;11.574;2023-01-19T01:14:32;10.13;;;7.17;;
48002;SDS011;33768;48.578;11.574;2023-01-19T01:17:37;14.13;;;7.27;;
48002;SDS011;33768;48.578;11.574;2023-01-19T01:20:50;13.23;;;7.03;;
48002;SDS011;33768;48.578;11.574;2023-01-19T01:23:54;14.77;;;6.87;;
48002;SDS011;33768;48.578;11.574;2023-01-19T01:26:59;10.87;;;6.03;;
48002;SDS011;33768;48.578;11.574;2023-01-19T01:30:03;12.57;;;6.23;;
48002;SDS011;33768;48.578;11.574;2023-01-19T01:33:08;12.67;;;6.53;;
48002;SDS011;33768;48.578;11.574;2023-01-19T01:36:14;8.93;;;6.13;;
48002;SDS011;33768;48.578;11.574;2023-01-19T01:39:18;11.00;;;6.23;;
48002;SDS011;33768;48.578;11.574;2023-01-19T01:42:29;10.20;;;5.90;;
48002;SDS011;33768;48.578;11.574;2023-01-19T01:45:37;11.07;;;6.03;;
48002;SDS011;33768;48.578;11.574;2023-01-19T01:48:48;8.27;;;6.00;;
48002;SDS011;33768;48.578;11.574;2023-01-19T01:51:56;11.20;;;7.17;;
48002;SDS011;33768;48.578;11.574;2023-01-19T01:55:00;10.63;;;6.23;;
48002;SDS011;33768;48.578;11.574;2023-01-19T01:58:06;12.73;;;6.80;;
48002;SDS011;33768;48.578;11.574;2023-01-19T02:01:14;10.90;;;7.13;;
48002;SDS011;33768;48.578;11.574;2023-01-19T02:04:37;11.43;;;7.80;;
48002;SDS011;33768;48.578;11.574;2023-01-19T02:11:26;13.63;;;7.90;;
48002;SDS011;33768;48.578;11.574;2023-01-19T02:14:49;12.97;;;8.73;;
48002;SDS011;33768;48.578;11.574;2023-01-19T02:17:54;18.57;;;9.03;;
48002;SDS011;33768;48.578;11.574;2023-01-19T02:24:17;14.60;;;8.67;;
48002;SDS011;33768;48.578;11.574;2023-01-19T02:27:22;14.17;;;9.20;;
48002;SDS011;33768;48.578;11.574;2023-01-19T02:30:26;14.17;;;9.60;;
48002;SDS011;33768;48.578;11.574;2023-01-19T02:33:31;15.27;;;9.90;;
48002;SDS011;33768;48.578;11.574;2023-01-19T02:36:40;13.40;;;9.40;;
48002;SDS011;33768;48.578;11.574;2023-01-19T02:39:51;19.67;;;9.97;;
48002;SDS011;33768;48.578;11.574;2023-01-19T02:42:58;15.17;;;8.90;;
48002;SDS011;33768;48.578;11.574;2023-01-19T02:46:03;12.77;;;9.23;;
48002;SDS011;33768;48.578;11.574;2023-01-19T02:49:08;15.30;;;9.17;;
48002;SDS011;33768;48.578;11.574;2023-01-19T02:52:15;13.90;;;9.13;;
48002;SDS011;33768;48.578;11.574;2023-01-19T02:55:21;13.20;;;8.50;;
48002;SDS011;33768;48.578;11.574;2023-01-19T02:58:36;15.63;;;9.57;;
48002;SDS011;33768;48.578;11.574;2023-01-19T03:02:09;15.87;;;9.40;;
48002;SDS011;33768;48.578;11.574;2023-01-19T03:05:50;14.63;;;9.20;;
48002;SDS011;33768;48.578;11.574;2023-01-19T03:09:11;14.83;;;9.77;;
48002;SDS011;33768;48.578;11.574;2023-01-19T03:12:25;14.60;;;9.60;;
48002;SDS011;33768;48.578;11.574;2023-01-19T03:15:46;17.47;;;9.47;;
48002;SDS011;33768;48.578;11.574;2023-01-19T03:18:57;14.90;;;10.27;;
48002;SDS011;33768;48.578;11.574;2023-01-19T03:22:11;14.37;;;10.10;;
48002;SDS011;33768;48.578;11.574;2023-01-19T03:25:17;14.83;;;10.00;;
48002;SDS011;33768;48.578;11.574;2023-01-19T03:28:25;16.10;;;10.23;;
48002;SDS011;33768;48.578;11.574;2023-01-19T03:31:31;14.70;;;9.83;;
48002;SDS011;33768;48.578;11.574;2023-01-19T03:34:37;15.50;;;10.60;;
48002;SDS011;33768;48.578;11.574;2023-01-19T03:37:43;15.50;;;10.37;;
48002;SDS011;33768;48.578;11.574;2023-01-19T03:40:54;17.43;;;10.23;;
48002;SDS011;33768;48.578;11.574;2023-01-19T03:44:01;14.90;;;10.63;;
48002;SDS011;33768;48.578;11.574;2023-01-19T03:47:09;21.80;;;12.03;;
48002;SDS011;33768;48.578;11.574;2023-01-19T03:50:19;16.20;;;10.47;;
48002;SDS011;33768;48.578;11.574;2023-01-19T03:53:30;15.23;;;10.17;;
48002;SDS011;33768;48.578;11.574;2023-01-19T03:56:35;18.13;;;10.53;;
48002;SDS011;33768;48.578;11.574;2023-01-19T03:59:39;17.60;;;10.50;;
48002;SDS011;33768;48.578;11.574;2023-01-19T04:02:43;16.47;;;10.40;;
48002;SDS011;33768;48.578;11.574;2023-01-19T04:05:47;18.93;;;11.90;;
48002;SDS011;33768;48.578;11.574;2023-01-19T04:08:52;17.17;;;11.27;;
48002;SDS011;33768;48.578;11.574;2023-01-19T04:11:57;18.33;;;10.73;;
48002;SDS011;33768;48.578;11.574;2023-01-19T04:15:01;16.00;;;11.20;;
48002;SDS011;33768;48.578;11.574;2023-01-19T04:18:05;17.03;;;11.23;;
48002;SDS011;33768;48.578;11.574;2023-01-19T04:21:09;16.50;;;11.03;;
48002;SDS011;33768;48.578;11.574;2023-01-19T04:24:13;17.53;;;11.17;;
48002;SDS011;33768;48.578;11.574;2023-01-19T04:27:18;17.57;;;11.00;;
48002;SDS011;33768;48.578;11.574;2023-01-19T04:30:22;18.57;;;11.33;;
48002;SDS011;33768;48.578;11.574;2023-01-19T04:33:26;16.13;;;10.70;;
48002;SDS011;33768;48.578;11.574;2023-01-19T04:36:30;16.83;;;10.80;;
48002;SDS011;33768;48.578;11.574;2023-01-19T04:39:35;16.67;;;11.00;;
48002;SDS011;33768;48.578;11.574;2023-01-19T04:42:43;18.83;;;11.77;;
48002;SDS011;33768;48.578;11.574;2023-01-19T04:45:48;18.47;;;10.80;;
48002;SDS011;33768;48.578;11.574;2023-01-19T04:48:52;15.37;;;11.23;;
48002;SDS011;33768;48.578;11.574;2023-01-19T04:51:56;16.17;;;10.47;;
48002;SDS011;33768;48.578;11.574;2023-01-19T04:55:01;19.37;;;10.63;;
48002;SDS011;33768;48.578;11.574;2023-01-19T04:58:06;19.43;;;11.10;;
48002;SDS011;33768;48.578;11.574;2023-01-19T05:01:10;18.13;;;11.00;;
48002;SDS011;33768;48.578;11.574;2023-01-19T05:04:15;17.57;;;11.30;;
48002;SDS011;33768;48.578;11.574;2023-01-19T05:07:19;22.47;;;12.07;;
48002;SDS011;33768;48.578;11.574;2023-01-19T05:10:23;19.63;;;11.63;;
48002;SDS011;33768;48.578;11.574;2023-01-19T05:13:27;19.93;;;11.77;;
48002;SDS011;33768;48.578;11.574;2023-01-19T05:16:31;17.57;;;11.57;;
48002;SDS011;33768;48.578;11.574;2023-01-19T05:19:35;17.90;;;11.13;;
48002;SDS011;33768;48.578;11.574;2023-01-19T05:22:39;17.07;;;11.30;;
48002;SDS011;33768;48.578;11.574;2023-01-19T05:25:44;24.47;;;12.43;;
48002;SDS011;33768;48.578;11.574;2023-01-19T05:28:48;21.30;;;12.07;;
48002;SDS011;33768;48.578;11.574;2023-01-19T05:31:53;20.30;;;11.37;;
48002;SDS011;33768;48.578;11.574;2023-01-19T05:34:57;18.23;;;10.87;;
48002;SDS011;33768;48.578;11.574;2023-01-19T05:38:01;18.07;;;11.80;;
48002;SDS011;33768;48.578;11.574;2023-01-19T05:41:06;17.93;;;10.97;;
48002;SDS011;33768;48.578;11.574;2023-01-19T05:44:10;20.17;;;10.87;;
48002;SDS011;33768;48.578;11.574;2023-01-19T05:47:15;19.93;;;10.97;;
48002;SDS011;33768;48.578;11.574;2023-01-19T05:50:19;19.20;;;12.60;;
48002;SDS011;33768;48.578;11.574;2023-01-19T05:53:24;22.53;;;12.17;;
48002;SDS011;33768;48.578;11.574;2023-01-19T05:56:29;20.97;;;11.40;;
48002;SDS011;33768;48.578;11.574;2023-01-19T05:59:33;17.20;;;11.23;;
48002;SDS011;33768;48.578;11.574;2023-01-19T06:02:37;20.70;;;12.50;;
48002;SDS011;33768;48.578;11.574;2023-01-19T06:05:42;17.13;;;11.97;;
48002;SDS011;33768;48.578;11.574;2023-01-19T06:08:46;19.73;;;12.30;;
48002;SDS011;33768;48.578;11.574;2023-01-19T06:11:50;19.67;;;12.13;;
48002;SDS011;33768;48.578;11.574;2023-01-19T06:14:56;21.43;;;11.80;;
48002;SDS011;33768;48.578;11.574;2023-01-19T06:18:00;18.00;;;11.17;;
48002;SDS011;33768;48.578;11.574;2023-01-19T06:21:06;20.53;;;12.50;;
48002;SDS011;33768;48.578;11.574;2023-01-19T06:24:12;21.83;;;12.30;;
48002;SDS011;33768;48.578;11.574;2023-01-19T06:27:16;20.13;;;12.10;;
48002;SDS011;33768;48.578;11.574;2023-01-19T06:30:20;17.83;;;10.77;;
48002;SDS011;33768;48.578;11.574;2023-01-19T06:33:24;19.27;;;12.57;;
48002;SDS011;33768;48.578;11.574;2023-01-19T06:36:28;19.37;;;12.37;;
48002;SDS011;33768;48.578;11.574;2023-01-19T06:39:32;18.20;;;11.77;;
48002;SDS011;33768;48.578;11.574;2023-01-19T06:42:36;15.03;;;11.13;;
48002;SDS011;33768;48.578;11.574;2023-01-19T06:45:41;14.50;;;10.83;;
48002;SDS011;33768;48.578;11.574;2023-01-19T06:48:45;18.47;;;12.33;;
48002;SDS011;33768;48.578;11.574;2023-01-19T06:51:49;20.33;;;11.63;;
48002;SDS011;33768;48.578;11.574;2023-01-19T06:54:53;18.27;;;11.07;;
48002;SDS011;33768;48.578;11.574;2023-01-19T06:57:57;18.30;;;12.10;;
48002;SDS011;33768;48.578;11.574;2023-01-19T07:01:03;17.93;;;10.93;;
48002;SDS011;33768;48.578;11.574;2023-01-19T07:04:08;17.13;;;11.07;;
48002;SDS011;33768;48.578;11.574;2023-01-19T07:07:16;18.77;;;11.57;;
48002;SDS011;33768;48.578;11.574;2023-01-19T07:10:21;17.60;;;11.57;;
48002;SDS011;33768;48.578;11.574;2023-01-19T07:13:26;20.43;;;11.73;;
48002;SDS011;33768;48.578;11.574;2023-01-19T07:16:30;18.40;;;11.53;;
48002;SDS011;33768;48.578;11.574;2023-01-19T07:19:34;16.80;;;10.83;;
48002;SDS011;33768;48.578;11.574;2023-01-19T07:22:38;18.67;;;11.67;;
48002;SDS011;33768;48.578;11.574;2023-01-19T07:25:44;20.03;;;11.23;;
48002;SDS011;33768;48.578;11.574;2023-01-19T07:28:50;22.57;;;12.60;;
48002;SDS011;33768;48.578;11.574;2023-01-19T07:31:55;18.27;;;11.40;;
48002;SDS011;33768;48.578;11.574;2023-01-19T07:34:59;17.07;;;11.67;;
48002;SDS011;33768;48.578;11.574;2023-01-19T07:38:03;18.47;;;12.47;;
48002;SDS011;33768;48.578;11.574;2023-01-19T07:41:08;19.13;;;11.93;;
48002;SDS011;33768;48.578;11.574;2023-01-19T07:44:12;18.80;;;12.73;;
48002;SDS011;33768;48.578;11.574;2023-01-19T07:47:17;19.77;;;12.23;;
48002;SDS011;33768;48.578;11.574;2023-01-19T07:50:21;23.07;;;14.13;;
48002;SDS011;33768;48.578;11.574;2023-01-19T07:53:31;23.20;;;14.37;;
48002;SDS011;33768;48.578;11.574;2023-01-19T07:56:35;20.60;;;13.70;;
48002;SDS011;33768;48.578;11.574;2023-01-19T07:59:39;19.93;;;12.50;;
48002;SDS011;33768;48.578;11.574;2023-01-19T08:02:43;18.97;;;11.63;;
48002;SDS011;33768;48.578;11.574;2023-01-19T08:05:51;19.40;;;12.03;;
48002;SDS011;33768;48.578;11.574;2023-01-19T08:08:55;18.53;;;11.17;;
48002;SDS011;33768;48.578;11.574;2023-01-19T08:12:00;19.57;;;12.30;;
48002;SDS011;33768;48.578;11.574;2023-01-19T08:15:05;20.87;;;13.53;;
48002;SDS011;33768;48.578;11.574;2023-01-19T08:18:09;23.17;;;13.80;;
48002;SDS011;33768;48.578;11.574;2023-01-19T08:21:14;23.17;;;11.90;;
48002;SDS011;33768;48.578;11.574;2023-01-19T08:24:20;23.53;;;13.63;;
48002;SDS011;33768;48.578;11.574;2023-01-19T08:27:25;22.37;;;11.97;;
48002;SDS011;33768;48.578;11.574;2023-01-19T08:30:30;18.33;;;12.27;;
48002;SDS011;33768;48.578;11.574;2023-01-19T08:33:34;20.23;;;11.87;;
48002;SDS011;33768;48.578;11.574;2023-01-19T08:36:39;15.83;;;10.97;;
48002;SDS011;33768;48.578;11.574;2023-01-19T08:39:43;15.60;;;10.70;;
48002;SDS011;33768;48.578;11.574;2023-01-19T08:42:47;15.47;;;10.30;;
48002;SDS011;33768;48.578;11.574;2023-01-19T08:45:51;15.00;;;10.13;;
48002;SDS011;33768;48.578;11.574;2023-01-19T08:48:55;15.43;;;9.83;;
48002;SDS011;33768;48.578;11.574;2023-01-19T08:52:00;13.07;;;8.93;;
48002;SDS011;33768;48.578;11.574;2023-01-19T08:55:05;14.83;;;9.60;;
48002;SDS011;33768;48.578;11.574;2023-01-19T08:58:10;15.60;;;9.67;;
48002;SDS011;33768;48.578;11.574;2023-01-19T09:01:15;16.17;;;9.23;;
48002;SDS011;33768;48.578;11.574;2023-01-19T09:04:19;12.37;;;8.90;;
48002;SDS011;33768;48.578;11.574;2023-01-19T09:07:23;11.87;;;7.70;;
48002;SDS011;33768;48.578;11.574;2023-01-19T09:10:27;15.23;;;8.50;;
48002;SDS011;33768;48.578;11.574;2023-01-19T09:13:38;10.17;;;7.60;;
48002;SDS011;33768;48.578;11.574;2023-01-19T09:16:43;10.07;;;7.77;;
48002;SDS011;33768;48.578;11.574;2023-01-19T09:19:47;10.60;;;7.70;;
48002;SDS011;33768;48.578;11.574;2023-01-19T09:22:51;11.77;;;8.07;;
48002;SDS011;33768;48.578;11.574;2023-01-19T09:25:59;13.70;;;8.57;;
48002;SDS011;33768;48.578;11.574;2023-01-19T09:29:05;15.07;;;8.43;;
48002;SDS011;33768;48.578;11.574;2023-01-19T09:32:09;12.27;;;7.87;;
48002;SDS011;33768;48.578;11.574;2023-01-19T09:35:14;12.57;;;8.43;;
48002;SDS011;33768;48.578;11.574;2023-01-19T09:38:18;12.63;;;7.23;;
48002;SDS011;33768;48.578;11.574;2023-01-19T09:41:23;11.30;;;7.43;;
48002;SDS011;33768;48.578;11.574;2023-01-19T09:44:31;10.20;;;7.07;;
48002;SDS011;33768;48.578;11.574;2023-01-19T09:47:37;9.57;;;6.27;;
48002;SDS011;33768;48.578;11.574;2023-01-19T09:50:42;10.53;;;7.47;;
48002;SDS011;33768;48.578;11.574;2023-01-19T09:54:11;10.80;;;7.97;;
48002;SDS011;33768;48.578;11.574;2023-01-19T09:57:20;13.40;;;8.30;;
48002;SDS011;33768;48.578;11.574;2023-01-19T10:00:26;11.93;;;6.90;;
48002;SDS011;33768;48.578;11.574;2023-01-19T10:03:33;11.73;;;7.33;;
48002;SDS011;33768;48.578;11.574;2023-01-19T10:06:41;13.37;;;7.63;;
48002;SDS011;33768;48.578;11.574;2023-01-19T10:19:54;10.03;;;6.40;;
48002;SDS011;33768;48.578;11.574;2023-01-19T10:23:01;10.27;;;6.70;;
48002;SDS011;33768;48.578;11.574;2023-01-19T10:26:31;10.50;;;7.03;;
48002;SDS011;33768;48.578;11.574;2023-01-19T10:29:46;11.33;;;7.17;;
48002;SDS011;33768;48.578;11.574;2023-01-19T10:32:50;8.80;;;6.50;;
48002;SDS011;33768;48.578;11.574;2023-01-19T10:35:55;9.97;;;5.83;;
48002;SDS011;33768;48.578;11.574;2023-01-19T10:38:59;7.77;;;5.77;;
48002;SDS011;33768;48.578;11.574;2023-01-19T10:42:03;8.33;;;5.47;;
48002;SDS011;33768;48.578;11.574;2023-01-19T10:45:16;8.13;;;5.50;;
48002;SDS011;33768;48.578;11.574;2023-01-19T10:48:22;8.70;;;5.93;;
48002;SDS011;33768;48.578;11.574;2023-01-19T10:51:27;9.57;;;6.20;;
48002;SDS011;33768;48.578;11.574;2023-01-19T10:54:32;7.20;;;5.50;;
48002;SDS011;33768;48.578;11.574;2023-01-19T10:57:40;9.07;;;5.80;;
48002;SDS011;33768;48.578;11.574;2023-01-19T11:00:46;8.23;;;5.53;;
48002;SDS011;33768;48.578;11.574;2023-01-19T11:03:51;7.53;;;5.10;;
48002;SDS011;33768;48.578;11.574;2023-01-19T11:07:13;7.83;;;5.60;;
48002;SDS011;33768;48.578;11.574;2023-01-19T11:10:27;6.87;;;4.93;;
48002;SDS011;33768;48.578;11.574;2023-01-19T11:13:32;9.13;;;5.37;;
48002;SDS011;33768;48.578;11.574;2023-01-19T11:16:36;7.77;;;5.20;;
48002;SDS011;33768;48.578;11.574;2023-01-19T11:19:43;8.17;;;5.50;;
48002;SDS011;33768;48.578;11.574;2023-01-19T11:23:04;8.10;;;5.63;;
48002;SDS011;33768;48.578;11.574;2023-01-19T11:29:52;8.37;;;5.70;;
48002;SDS011;33768;48.578;11.574;2023-01-19T11:33:23;7.93;;;5.13;;
48002;SDS011;33768;48.578;11.574;2023-01-19T11:36:33;10.23;;;5.23;;
48002;SDS011;33768;48.578;11.574;2023-01-19T11:42:56;7.77;;;5.17;;
48002;SDS011;33768;48.578;11.574;2023-01-19T11:46:01;6.97;;;4.93;;
48002;SDS011;33768;48.578;11.574;2023-01-19T11:49:06;8.03;;;5.30;;
48002;SDS011;33768;48.578;11.574;2023-01-19T11:52:36;12.60;;;5.87;;
48002;SDS011;33768;48.578;11.574;2023-01-19T11:55:46;6.87;;;5.00;;
48002;SDS011;33768;48.578;11.574;2023-01-19T11:58:55;9.23;;;5.73;;
48002;SDS011;33768;48.578;11.574;2023-01-19T12:01:59;7.90;;;5.60;;
48002;SDS011;33768;48.578;11.574;2023-01-19T12:05:09;8.33;;;5.60;;
48002;SDS011;33768;48.578;11.574;2023-01-19T12:08:18;8.77;;;5.63;;
48002;SDS011;33768;48.578;11.574;2023-01-19T12:11:43;9.07;;;5.60;;
48002;SDS011;33768;48.578;11.574;2023-01-19T12:18:03;8.07;;;5.70;;
48002;SDS011;33768;48.578;11.574;2023-01-19T12:21:10;9.03;;;6.30;;
48002;SDS011;33768;48.578;11.574;2023-01-19T12:24:21;9.63;;;6.07;;
48002;SDS011;33768;48.578;11.574;2023-01-19T12:27:42;7.13;;;5.70;;
48002;SDS011;33768;48.578;11.574;2023-01-19T12:30:48;7.93;;;5.47;;
48002;SDS011;33768;48.578;11.574;2023-01-19T12:33:54;10.03;;;5.67;;
48002;SDS011;33768;48.578;11.574;2023-01-19T12:37:38;9.10;;;5.37;;
48002;SDS011;33768;48.578;11.574;2023-01-19T12:40:44;8.70;;;6.17;;
48002;SDS011;33768;48.578;11.574;2023-01-19T12:50:19;8.87;;;5.53;;
48002;SDS011;33768;48.578;11.574;2023-01-19T12:53:25;8.10;;;6.00;;
48002;SDS011;33768;48.578;11.574;2023-01-19T12:56:31;8.20;;;6.30;;
48002;SDS011;33768;48.578;11.574;2023-01-19T12:59:36;8.47;;;5.37;;
48002;SDS011;33768;48.578;11.574;2023-01-19T13:02:42;7.43;;;4.73;;
48002;SDS011;33768;48.578;11.574;2023-01-19T13:08:56;8.53;;;4.70;;
48002;SDS011;33768;48.578;11.574;2023-01-19T13:15:36;8.00;;;3.83;;
48002;SDS011;33768;48.578;11.574;2023-01-19T13:18:40;6.00;;;4.13;;
48002;SDS011;33768;48.578;11.574;2023-01-19T13:21:46;7.10;;;4.13;;
48002;SDS011;33768;48.578;11.574;2023-01-19T13:25:11;8.50;;;7.17;;
48002;SDS011;33768;48.578;11.574;2023-01-19T13:28:45;6.60;;;5.00;;
48002;SDS011;33768;48.578;11.574;2023-01-19T13:31:48;9.27;;;6.47;;
48002;SDS011;33768;48.578;11.574;2023-01-19T13:34:55;8.80;;;6.80;;
48002;SDS011;33768;48.578;11.574;2023-01-19T13:38:01;7.87;;;4.17;;
48002;SDS011;33768;48.578;11.574;2023-01-19T13:41:06;4.73;;;3.50;;
48002;SDS011;33768;48.578;11.574;2023-01-19T13:44:22;5.97;;;4.40;;
48002;SDS011;33768;48.578;11.574;2023-01-19T13:47:33;18.20;;;16.40;;
48002;SDS011;33768;48.578;11.574;2023-01-19T13:50:55;17.07;;;15.00;;
48002;SDS011;33768;48.578;11.574;2023-01-19T13:54:12;24.60;;;14.17;;
48002;SDS011;33768;48.578;11.574;2023-01-19T13:57:29;18.07;;;12.17;;
48002;SDS011;33768;48.578;11.574;2023-01-19T14:00:34;11.00;;;6.97;;
48002;SDS011;33768;48.578;11.574;2023-01-19T14:03:39;13.37;;;11.17;;
48002;SDS011;33768;48.578;11.574;2023-01-19T14:06:43;6.43;;;4.90;;
48002;SDS011;33768;48.578;11.574;2023-01-19T14:10:03;8.13;;;5.13;;
48002;SDS011;33768;48.578;11.574;2023-01-19T14:16:27;8.33;;;4.47;;
48002;SDS011;33768;48.578;11.574;2023-01-19T14:19:45;7.00;;;4.50;;
48002;SDS011;33768;48.578;11.574;2023-01-19T14:22:51;31.50;;;16.07;;
48002;SDS011;33768;48.578;11.574;2023-01-19T14:25:55;32.00;;;17.70;;
48002;SDS011;33768;48.578;11.574;2023-01-19T14:29:05;15.57;;;8.33;;
48002;SDS011;33768;48.578;11.574;2023-01-19T14:35:27;8.70;;;5.77;;
48002;SDS011;33768;48.578;11.574;2023-01-19T14:38:32;6.27;;;4.50;;
48002;SDS011;33768;48.578;11.574;2023-01-19T14:41:44;10.10;;;5.70;;
48002;SDS011;33768;48.578;11.574;2023-01-19T14:44:51;7.67;;;5.10;;
48002;SDS011;33768;48.578;11.574;2023-01-19T14:48:00;7.63;;;4.60;;
48002;SDS011;33768;48.578;11.574;2023-01-19T14:51:06;7.03;;;4.63;;
48002;SDS011;33768;48.578;11.574;2023-01-19T14:54:16;7.27;;;4.10;;
48002;SDS011;33768;48.578;11.574;2023-01-19T14:57:27;5.07;;;3.93;;
48002;SDS011;33768;48.578;11.574;2023-01-19T15:00:47;6.50;;;4.00;;
48002;SDS011;33768;48.578;11.574;2023-01-19T15:03:51;11.70;;;6.30;;
48002;SDS011;33768;48.578;11.574;2023-01-19T15:06:56;13.67;;;8.00;;
48002;SDS011;33768;48.578;11.574;2023-01-19T15:10:01;10.63;;;6.80;;
48002;SDS011;33768;48.578;11.574;2023-01-19T15:13:05;7.30;;;5.50;;
48002;SDS011;33768;48.578;11.574;2023-01-19T15:16:09;5.97;;;4.90;;
48002;SDS011;33768;48.578;11.574;2023-01-19T15:19:14;6.83;;;4.47;;
48002;SDS011;33768;48.578;11.574;2023-01-19T15:22:19;7.27;;;5.10;;
48002;SDS011;33768;48.578;11.574;2023-01-19T15:25:27;8.80;;;5.70;;
48002;SDS011;33768;48.578;11.574;2023-01-19T15:28:33;6.40;;;4.37;;
48002;SDS011;33768;48.578;11.574;2023-01-19T15:31:37;5.97;;;4.47;;
48002;SDS011;33768;48.578;11.574;2023-01-19T15:34:41;6.10;;;4.07;;
48002;SDS011;33768;48.578;11.574;2023-01-19T15:37:46;6.07;;;4.07;;
48002;SDS011;33768;48.578;11.574;2023-01-19T15:40:51;5.97;;;3.73;;
48002;SDS011;33768;48.578;11.574;2023-01-19T15:43:55;6.03;;;3.73;;
48002;SDS011;33768;48.578;11.574;2023-01-19T15:47:00;5.77;;;4.13;;
48002;SDS011;33768;48.578;11.574;2023-01-19T15:50:04;9.63;;;6.73;;
48002;SDS011;33768;48.578;11.574;2023-01-19T15:53:13;38.50;;;27.20;;
48002;SDS011;33768;48.578;11.574;2023-01-19T15:56:20;21.03;;;16.13;;
48002;SDS011;33768;48.578;11.574;2023-01-19T15:59:28;24.17;;;18.27;;
48002;SDS011;33768;48.578;11.574;2023-01-19T16:02:32;27.23;;;17.87;;
48002;SDS011;33768;48.578;11.574;2023-01-19T16:05:37;10.67;;;7.57;;
48002;SDS011;33768;48.578;11.574;2023-01-19T16:08:41;13.53;;;10.40;;
48002;SDS011;33768;48.578;11.574;2023-01-19T16:11:46;18.00;;;11.43;;
48002;SDS011;33768;48.578;11.574;2023-01-19T16:14:50;31.80;;;23.30;;
48002;SDS011;33768;48.578;11.574;2023-01-19T16:17:54;18.93;;;11.60;;
48002;SDS011;33768;48.578;11.574;2023-01-19T16:20:59;19.67;;;13.47;;
48002;SDS011;33768;48.578;11.574;2023-01-19T16:24:03;11.20;;;7.47;;
48002;SDS011;33768;48.578;11.574;2023-01-19T16:27:07;10.00;;;6.63;;
48002;SDS011;33768;48.578;11.574;2023-01-19T16:30:12;7.70;;;5.40;;
48002;SDS011;33768;48.578;11.574;2023-01-19T16:33:18;7.83;;;4.83;;
48002;SDS011;33768;48.578;11.574;2023-01-19T16:36:24;8.93;;;3.93;;
48002;SDS011;33768;48.578;11.574;2023-01-19T16:39:33;5.57;;;4.07;;
48002;SDS011;33768;48.578;11.574;2023-01-19T16:42:37;5.10;;;3.73;;
48002;SDS011;33768;48.578;11.574;2023-01-19T16:45:55;5.40;;;4.23;;
48002;SDS011;33768;48.578;11.574;2023-01-19T16:49:05;6.73;;;4.73;;
48002;SDS011;33768;48.578;11.574;2023-01-19T16:52:13;5.80;;;4.23;;
48002;SDS011;33768;48.578;11.574;2023-01-19T16:55:17;8.73;;;4.53;;
48002;SDS011;33768;48.578;11.574;2023-01-19T16:58:22;7.17;;;4.50;;
48002;SDS011;33768;48.578;11.574;2023-01-19T17:01:27;7.63;;;4.40;;
48002;SDS011;33768;48.578;11.574;2023-01-19T17:04:31;6.40;;;4.63;;
48002;SDS011;33768;48.578;11.574;2023-01-19T17:07:35;8.50;;;4.97;;
48002;SDS011;33768;48.578;11.574;2023-01-19T17:10:39;7.00;;;4.77;;
48002;SDS011;33768;48.578;11.574;2023-01-19T17:13:48;8.00;;;5.23;;
48002;SDS011;33768;48.578;11.574;2023-01-19T17:16:54;7.60;;;5.10;;
48002;SDS011;33768;48.578;11.574;2023-01-19T17:19:58;7.70;;;5.50;;
48002;SDS011;33768;48.578;11.574;2023-01-19T17:23:02;12.10;;;5.97;;
48002;SDS011;33768;48.578;11.574;2023-01-19T17:26:07;10.90;;;6.27;;
48002;SDS011;33768;48.578;11.574;2023-01-19T17:29:11;14.93;;;8.50;;
48002;SDS011;33768;48.578;11.574;2023-01-19T17:32:15;8.07;;;5.50;;
48002;SDS011;33768;48.578;11.574;2023-01-19T17:35:19;8.50;;;5.83;;
48002;SDS011;33768;48.578;11.574;2023-01-19T17:38:24;9.97;;;5.83;;
48002;SDS011;33768;48.578;11.574;2023-01-19T17:41:29;11.87;;;6.10;;
48002;SDS011;33768;48.578;11.574;2023-01-19T17:44:35;9.50;;;6.87;;
48002;SDS011;33768;48.578;11.574;2023-01-19T17:47:39;11.03;;;7.30;;
48002;SDS011;33768;48.578;11.574;2023-01-19T17:50:43;8.73;;;6.20;;
48002;SDS011;33768;48.578;11.574;2023-01-19T17:53:48;8.87;;;5.73;;
48002;SDS011;33768;48.578;11.574;2023-01-19T17:56:53;8.53;;;6.17;;
48002;SDS011;33768;48.578;11.574;2023-01-19T17:59:59;9.43;;;6.17;;
48002;SDS011;33768;48.578;11.574;2023-01-19T18:03:03;12.30;;;6.40;;
48002;SDS011;33768;48.578;11.574;2023-01-19T18:06:07;7.60;;;5.67;;
48002;SDS011;33768;48.578;11.574;2023-01-19T18:09:12;20.30;;;10.43;;
48002;SDS011;33768;48.578;11.574;2023-01-19T18:12:16;30.57;;;15.23;;
48002;SDS011;33768;48.578;11.574;2023-01-19T18:15:22;17.00;;;9.73;;
48002;SDS011;33768;48.578;11.574;2023-01-19T18:18:27;12.97;;;8.27;;
48002;SDS011;33768;48.578;11.574;2023-01-19T18:21:32;13.97;;;8.73;;
48002;SDS011;33768;48.578;11.574;2023-01-19T18:24:36;18.20;;;10.67;;
48002;SDS011;33768;48.578;11.574;2023-01-19T18:27:40;8.97;;;6.07;;
48002;SDS011;33768;48.578;11.574;2023-01-19T18:30:45;14.10;;;9.47;;
48002;SDS011;33768;48.578;11.574;2023-01-19T18:33:49;11.50;;;8.00;;
48002;SDS011;33768;48.578;11.574;2023-01-19T18:36:53;11.37;;;8.10;;
48002;SDS011;33768;48.578;11.574;2023-01-19T18:39:57;9.27;;;6.30;;
48002;SDS011;33768;48.578;11.574;2023-01-19T18:43:05;9.00;;;6.10;;
48002;SDS011;33768;48.578;11.574;2023-01-19T18:46:10;9.93;;;5.60;;
48002;SDS011;33768;48.578;11.574;2023-01-19T18:49:15;8.60;;;5.20;;
48002;SDS011;33768;48.578;11.574;2023-01-19T18:52:19;9.53;;;6.27;;
48002;SDS011;33768;48.578;11.574;2023-01-19T18:55:23;10.60;;;6.00;;
48002;SDS011;33768;48.578;11.574;2023-01-19T18:58:28;9.50;;;5.70;;